createdAt,value
2022-09-22T00:01:26.050Z,8.90
2022-09-22T00:03:56.592Z,8.80
2022-09-22T00:06:25.709Z,8.80
2022-09-22T00:08:55.496Z,8.70
2022-09-22T00:11:25.291Z,8.70
2022-09-22T00:13:56.144Z,8.70
2022-09-22T00:16:27.894Z,8.70
2022-09-22T00:18:55.845Z,8.60
2022-09-22T00:21:27.561Z,8.60
2022-09-22T00:23:55.909Z,8.50
2022-09-22T00:26:24.993Z,8.60
2022-09-22T00:28:53.182Z,8.60
2022-09-22T00:31:23.822Z,8.50
2022-09-22T00:33:54.467Z,8.50
2022-09-22T00:36:24.080Z,8.50
2022-09-22T00:38:52.176Z,8.50
2022-09-22T00:41:23.188Z,8.50
2022-09-22T00:44:12.227Z,8.40
2022-09-22T00:46:42.571Z,8.40
2022-09-22T00:49:13.413Z,8.40
2022-09-22T00:51:43.873Z,8.30
2022-09-22T00:54:14.992Z,8.30
2022-09-22T00:56:47.974Z,8.30
2022-09-22T00:59:20.701Z,8.30
2022-09-22T01:01:49.148Z,8.20
2022-09-22T01:04:18.539Z,8.20
2022-09-22T01:06:47.151Z,8.20
2022-09-22T01:09:15.517Z,8.10
2022-09-22T01:11:44.522Z,8.10
2022-09-22T01:14:31.783Z,8.10
2022-09-22T01:17:07.766Z,8.00
2022-09-22T01:20:29.220Z,8.00
2022-09-22T01:23:26.744Z,8.00
2022-09-22T01:26:11.548Z,8.00
2022-09-22T01:29:07.048Z,7.90
2022-09-22T01:31:40.755Z,7.90
2022-09-22T01:34:14.541Z,7.90
2022-09-22T01:36:47.801Z,7.90
2022-09-22T01:39:19.699Z,7.90
2022-09-22T01:41:54.909Z,7.90
2022-09-22T01:44:28.105Z,7.90
2022-09-22T01:47:02.391Z,7.90
2022-09-22T01:49:33.916Z,7.90
2022-09-22T01:52:06.192Z,7.80
2022-09-22T01:54:39.876Z,7.90
2022-09-22T01:57:21.344Z,7.80
2022-09-22T01:59:54.390Z,7.70
2022-09-22T02:02:28.277Z,7.70
2022-09-22T02:05:00.521Z,7.70
2022-09-22T02:07:33.752Z,7.70
2022-09-22T02:10:06.587Z,7.60
2022-09-22T02:12:35.936Z,7.50
2022-09-22T02:15:03.973Z,7.50
2022-09-22T02:17:35.347Z,7.40
2022-09-22T02:20:06.620Z,7.40
2022-09-22T02:22:34.424Z,7.40
2022-09-22T02:25:02.281Z,7.40
2022-09-22T02:27:36.663Z,7.30
2022-09-22T02:30:08.441Z,7.30
2022-09-22T02:32:41.421Z,7.30
2022-09-22T02:35:10.708Z,7.30
2022-09-22T02:37:42.468Z,7.30
2022-09-22T02:40:19.400Z,7.30
2022-09-22T02:42:50.617Z,7.20
2022-09-22T02:45:23.004Z,7.20
2022-09-22T02:47:57.114Z,7.20
2022-09-22T02:50:28.324Z,7.10
2022-09-22T02:52:59.728Z,7.10
2022-09-22T02:55:27.756Z,7.10
2022-09-22T02:57:55.847Z,7.10
2022-09-22T03:00:23.773Z,7.10
2022-09-22T03:02:52.913Z,7.10
2022-09-22T03:05:20.877Z,7.10
2022-09-22T03:07:48.769Z,7.10
2022-09-22T03:10:16.929Z,7.10
2022-09-22T03:13:09.088Z,7.00
2022-09-22T03:15:32.857Z,7.00
2022-09-22T03:18:02.069Z,7.00
2022-09-22T03:20:29.942Z,7.00
2022-09-22T03:22:57.745Z,7.00
2022-09-22T03:25:25.625Z,7.00
2022-09-22T03:27:53.513Z,7.00
2022-09-22T03:30:21.398Z,7.00
2022-09-22T03:32:49.339Z,7.00
2022-09-22T03:35:18.666Z,7.00
2022-09-22T03:37:46.924Z,7.00
2022-09-22T03:40:14.985Z,6.90
2022-09-22T03:42:43.125Z,6.90
2022-09-22T03:45:12.539Z,6.90
2022-09-22T03:47:40.382Z,6.90
2022-09-22T03:50:09.815Z,6.80
2022-09-22T03:52:40.051Z,6.80
2022-09-22T03:55:09.272Z,6.80
2022-09-22T03:57:37.093Z,6.80
2022-09-22T04:00:05.616Z,6.80
2022-09-22T04:02:33.508Z,6.70
2022-09-22T04:05:01.329Z,6.70
2022-09-22T04:07:29.146Z,6.60
2022-09-22T04:09:58.624Z,6.60
2022-09-22T04:12:26.450Z,6.60
2022-09-22T04:14:54.248Z,6.60
2022-09-22T04:17:22.085Z,6.60
2022-09-22T04:19:49.941Z,6.60
2022-09-22T04:22:17.811Z,6.50
2022-09-22T04:24:45.638Z,6.50
2022-09-22T04:27:20.130Z,6.50
2022-09-22T04:29:48.657Z,6.50
2022-09-22T04:32:16.932Z,6.50
2022-09-22T04:34:44.816Z,6.50
2022-09-22T04:37:13.523Z,6.40
2022-09-22T04:39:41.576Z,6.40
2022-09-22T04:42:09.893Z,6.40
2022-09-22T04:44:39.101Z,6.40
2022-09-22T04:47:07.172Z,6.40
2022-09-22T04:49:34.966Z,6.40
2022-09-22T04:52:03.293Z,6.30
2022-09-22T04:54:31.145Z,6.40
2022-09-22T04:56:58.929Z,6.30
2022-09-22T04:59:26.792Z,6.30
2022-09-22T05:01:56.124Z,6.30
2022-09-22T05:04:24.386Z,6.30
2022-09-22T05:06:52.171Z,6.20
2022-09-22T05:09:20.801Z,6.30
2022-09-22T05:11:49.326Z,6.30
2022-09-22T05:14:19.729Z,6.30
2022-09-22T05:16:50.718Z,6.30
2022-09-22T05:19:20.078Z,6.30
2022-09-22T05:21:47.909Z,6.30
2022-09-22T05:24:15.712Z,6.30
2022-09-22T05:26:43.526Z,6.30
2022-09-22T05:29:11.489Z,6.30
2022-09-22T05:31:39.360Z,6.30
2022-09-22T05:34:07.221Z,6.30
2022-09-22T05:36:36.372Z,6.30
2022-09-22T05:39:04.350Z,6.30
2022-09-22T05:41:32.197Z,6.30
2022-09-22T05:43:59.990Z,6.30
2022-09-22T05:46:27.921Z,6.40
2022-09-22T05:48:55.732Z,6.40
2022-09-22T05:51:23.744Z,6.40
2022-09-22T05:53:53.574Z,6.50
2022-09-22T05:56:21.390Z,6.50
2022-09-22T05:58:49.238Z,6.60
2022-09-22T06:01:17.362Z,6.60
2022-09-22T06:03:45.290Z,6.70
2022-09-22T06:06:14.878Z,6.70
2022-09-22T06:08:47.781Z,6.70
2022-09-22T06:11:17.965Z,6.80
2022-09-22T06:13:46.063Z,6.80
2022-09-22T06:16:13.909Z,6.90
2022-09-22T06:18:42.016Z,6.90
2022-09-22T06:21:09.948Z,6.90
2022-09-22T06:23:42.622Z,7.00
2022-09-22T06:26:10.752Z,7.10
2022-09-22T06:28:39.910Z,7.10
2022-09-22T06:31:07.793Z,7.20
2022-09-22T06:33:35.888Z,7.30
2022-09-22T06:36:04.196Z,7.30
2022-09-22T06:38:32.843Z,7.40
2022-09-22T06:41:02.951Z,7.50
2022-09-22T06:43:30.783Z,7.60
2022-09-22T06:46:01.590Z,7.60
2022-09-22T06:48:29.465Z,7.80
2022-09-22T06:50:57.586Z,7.90
2022-09-22T06:53:27.551Z,8.10
2022-09-22T06:55:55.622Z,8.20
2022-09-22T06:58:24.111Z,8.40
2022-09-22T07:00:53.605Z,8.60
2022-09-22T07:03:26.190Z,8.80
2022-09-22T07:05:55.850Z,9.10
2022-09-22T07:08:24.156Z,9.30
2022-09-22T07:10:56.727Z,9.50
2022-09-22T07:13:24.754Z,9.80
2022-09-22T07:15:52.761Z,10.20
2022-09-22T07:18:21.959Z,10.60
2022-09-22T07:20:49.930Z,11.00
2022-09-22T07:23:21.172Z,11.40
2022-09-22T07:25:56.768Z,11.90
2022-09-22T07:28:25.873Z,12.40
2022-09-22T07:30:53.767Z,12.90
2022-09-22T07:33:23.076Z,13.50
2022-09-22T07:35:59.492Z,14.10
2022-09-22T07:38:29.700Z,14.60
2022-09-22T07:40:59.927Z,15.20
2022-09-22T07:43:28.064Z,15.70
2022-09-22T07:45:57.776Z,16.30
2022-09-22T07:48:45.591Z,16.80
2022-09-22T07:51:18.258Z,17.30
2022-09-22T07:53:47.717Z,17.90
2022-09-22T07:56:18.026Z,18.50
2022-09-22T07:58:50.263Z,19.00
2022-09-22T08:01:19.030Z,19.60
2022-09-22T08:03:48.365Z,20.20
2022-09-22T08:06:18.591Z,20.60
2022-09-22T08:08:52.284Z,20.70
2022-09-22T08:11:23.035Z,20.80
2022-09-22T08:13:53.590Z,20.80
2022-09-22T08:16:22.863Z,20.90
2022-09-22T08:18:56.541Z,21.20
2022-09-22T08:21:24.433Z,21.40
2022-09-22T08:23:53.127Z,21.60
2022-09-22T08:26:21.980Z,21.50
2022-09-22T08:28:52.988Z,21.40
2022-09-22T08:31:21.324Z,21.40
2022-09-22T08:33:50.232Z,21.50
2022-09-22T08:36:19.803Z,21.80
2022-09-22T08:38:49.307Z,22.20
2022-09-22T08:41:22.287Z,22.60
2022-09-22T08:43:55.114Z,22.90
2022-09-22T08:46:28.377Z,23.10
2022-09-22T08:49:17.864Z,23.10
2022-09-22T08:51:53.957Z,22.90
2022-09-22T08:54:26.613Z,22.70
2022-09-22T08:57:21.423Z,22.40
2022-09-22T08:59:53.763Z,22.20
2022-09-22T09:02:41.040Z,22.10
2022-09-22T09:05:46.413Z,22.20
2022-09-22T09:08:28.579Z,22.50
2022-09-22T09:11:00.140Z,23.10
2022-09-22T09:13:42.114Z,23.70
2022-09-22T09:16:28.405Z,24.60
2022-09-22T09:19:01.858Z,25.50
2022-09-22T09:21:32.648Z,26.50
2022-09-22T09:26:56.094Z,28.40
2022-09-22T09:29:27.769Z,29.40
2022-09-22T09:31:56.852Z,30.70
2022-09-22T09:34:28.871Z,31.30
2022-09-22T09:37:07.609Z,31.80
2022-09-22T09:39:40.431Z,32.50
2022-09-22T09:42:20.504Z,33.20
2022-09-22T09:44:53.475Z,33.80
2022-09-22T09:47:41.627Z,34.40
2022-09-22T09:50:12.077Z,35.10
2022-09-22T09:52:42.259Z,35.80
2022-09-22T09:55:26.633Z,36.40
2022-09-22T09:58:07.118Z,37.10
2022-09-22T10:00:36.247Z,37.80
2022-09-22T10:03:15.830Z,38.40
2022-09-22T10:05:43.938Z,39.10
2022-09-22T10:08:21.071Z,39.70
2022-09-22T10:10:55.781Z,40.30
2022-09-22T10:13:33.967Z,40.90
2022-09-22T10:16:22.731Z,41.40
2022-09-22T10:18:52.096Z,42.00
2022-09-22T10:21:21.926Z,42.90
2022-09-22T10:23:51.177Z,42.90
2022-09-22T10:26:26.176Z,43.40
2022-09-22T10:29:11.935Z,43.90
2022-09-22T10:31:40.591Z,44.00
2022-09-22T10:34:30.118Z,44.80
2022-09-22T10:36:59.441Z,45.10
2022-09-22T10:39:36.427Z,45.60
2022-09-22T10:42:15.983Z,45.70
2022-09-22T10:44:48.582Z,46.00
2022-09-22T10:47:33.694Z,46.30
2022-09-22T10:50:23.582Z,46.50
2022-09-22T10:52:56.619Z,46.80
2022-09-22T10:55:30.593Z,47.00
2022-09-22T10:58:27.197Z,47.20
2022-09-22T11:01:09.436Z,47.40
2022-09-22T11:04:07.155Z,47.60
2022-09-22T11:07:07.393Z,47.80
2022-09-22T11:09:59.016Z,48.00
2022-09-22T11:12:43.614Z,48.10
2022-09-22T11:15:27.102Z,48.00
2022-09-22T11:18:31.476Z,47.80
2022-09-22T11:21:04.200Z,47.50
2022-09-22T11:24:08.211Z,47.10
2022-09-22T11:26:50.054Z,46.30
2022-09-22T11:29:49.293Z,45.10
2022-09-22T11:32:34.110Z,43.70
2022-09-22T11:35:26.794Z,42.10
2022-09-22T11:38:09.369Z,40.50
2022-09-22T11:40:50.615Z,39.00
2022-09-22T11:43:42.694Z,37.60
2022-09-22T11:46:19.197Z,36.30
2022-09-22T11:48:58.656Z,35.00
2022-09-22T11:51:47.372Z,33.90
2022-09-22T11:54:39.221Z,32.80
2022-09-22T11:57:12.205Z,31.80
2022-09-22T11:59:44.909Z,30.90
2022-09-22T12:02:19.559Z,30.20
2022-09-22T12:04:53.633Z,29.50
2022-09-22T12:07:27.559Z,28.90
2022-09-22T12:09:59.929Z,28.40
2022-09-22T12:12:29.884Z,28.00
2022-09-22T12:15:04.811Z,27.50
2022-09-22T12:17:39.765Z,27.20
2022-09-22T12:20:25.424Z,26.80
2022-09-22T12:23:15.401Z,26.40
2022-09-22T12:25:49.383Z,26.10
2022-09-22T12:28:19.854Z,25.80
2022-09-22T12:30:59.900Z,25.50
2022-09-22T12:33:29.386Z,25.30
2022-09-22T12:35:59.948Z,25.00
2022-09-22T12:38:30.403Z,24.80
2022-09-22T12:41:02.310Z,24.60
2022-09-22T12:43:31.932Z,24.40
2022-09-22T12:46:03.698Z,24.30
2022-09-22T12:48:34.160Z,24.10
2022-09-22T12:51:33.247Z,23.90
2022-09-22T12:54:45.704Z,23.80
2022-09-22T12:57:29.563Z,23.60
2022-09-22T13:00:20.626Z,23.40
2022-09-22T13:02:49.761Z,23.30
2022-09-22T13:05:46.534Z,23.20
2022-09-22T13:08:24.739Z,23.10
2022-09-22T13:10:58.645Z,22.90
2022-09-22T13:13:41.317Z,22.90
2022-09-22T13:16:35.607Z,22.70
2022-09-22T13:19:05.223Z,22.70
2022-09-22T13:21:34.385Z,22.60
2022-09-22T13:24:06.228Z,22.60
2022-09-22T13:26:36.674Z,22.50
2022-09-22T13:29:11.370Z,22.40
2022-09-22T13:31:41.613Z,22.40
2022-09-22T13:34:28.941Z,22.30
2022-09-22T13:37:00.246Z,22.30
2022-09-22T13:39:31.956Z,22.20
2022-09-22T13:42:05.591Z,22.10
2022-09-22T13:44:35.763Z,22.00
2022-09-22T13:47:08.125Z,22.00
2022-09-22T13:49:40.952Z,21.90
2022-09-22T13:52:14.900Z,21.80
2022-09-22T13:54:48.905Z,21.80
2022-09-22T13:57:23.061Z,21.70
2022-09-22T13:59:52.667Z,21.70
2022-09-22T14:02:28.185Z,21.70
2022-09-22T14:05:03.531Z,21.60
2022-09-22T14:07:38.380Z,21.60
2022-09-22T14:10:19.384Z,21.50
2022-09-22T14:12:48.157Z,21.50
2022-09-22T14:15:43.188Z,21.40
2022-09-22T14:18:17.818Z,21.40
2022-09-22T14:20:46.557Z,21.40
2022-09-22T14:23:20.939Z,21.30
2022-09-22T14:25:50.285Z,21.20
2022-09-22T14:28:22.679Z,21.20
2022-09-22T14:30:51.144Z,21.20
2022-09-22T14:33:23.621Z,21.10
2022-09-22T14:35:52.976Z,21.10
2022-09-22T14:38:23.813Z,21.10
2022-09-22T14:40:54.926Z,21.00
2022-09-22T14:43:25.024Z,21.00
2022-09-22T14:46:00.453Z,20.90
2022-09-22T14:48:31.408Z,20.90
2022-09-22T14:51:05.304Z,20.90
2022-09-22T14:53:35.602Z,20.80
2022-09-22T14:56:08.476Z,20.80
2022-09-22T14:58:40.755Z,20.70
2022-09-22T15:01:39.526Z,20.70
2022-09-22T15:04:14.996Z,20.70
2022-09-22T15:06:43.720Z,20.60
2022-09-22T15:09:22.350Z,20.60
2022-09-22T15:11:53.607Z,20.50
2022-09-22T15:14:41.245Z,20.50
2022-09-22T15:17:54.584Z,20.40
2022-09-22T15:20:24.796Z,20.40
2022-09-22T15:22:54.178Z,20.40
2022-09-22T15:25:22.976Z,20.30
2022-09-22T15:27:53.354Z,20.30
2022-09-22T15:30:22.850Z,20.20
2022-09-22T15:32:50.953Z,20.20
2022-09-22T15:35:20.261Z,20.20
2022-09-22T15:37:50.038Z,20.20
2022-09-22T15:40:21.069Z,20.10
2022-09-22T15:43:11.339Z,20.10
2022-09-22T15:45:41.787Z,20.00
2022-09-22T15:48:10.278Z,20.00
2022-09-22T15:50:38.090Z,20.00
2022-09-22T15:53:05.878Z,19.90
2022-09-22T15:55:34.536Z,19.80
2022-09-22T15:58:07.352Z,19.80
2022-09-22T16:00:36.619Z,19.80
2022-09-22T16:03:15.472Z,19.70
2022-09-22T16:05:44.822Z,19.60
2022-09-22T16:08:16.974Z,19.60
2022-09-22T16:10:46.018Z,19.50
2022-09-22T16:13:14.092Z,19.50
2022-09-22T16:15:41.935Z,19.40
2022-09-22T16:18:11.129Z,19.40
2022-09-22T16:20:38.944Z,19.30
2022-09-22T16:23:07.484Z,19.20
2022-09-22T16:25:35.341Z,19.20
2022-09-22T16:28:03.540Z,19.10
2022-09-22T16:30:31.319Z,19.10
2022-09-22T16:32:59.398Z,19.00
2022-09-22T16:35:28.590Z,18.90
2022-09-22T16:37:57.083Z,18.90
2022-09-22T16:40:26.137Z,18.80
2022-09-22T16:42:53.955Z,18.70
2022-09-22T16:45:41.988Z,18.70
2022-09-22T16:48:10.028Z,18.60
2022-09-22T16:50:39.312Z,18.50
2022-09-22T16:53:11.058Z,18.50
2022-09-22T16:55:38.837Z,18.40
2022-09-22T16:58:13.528Z,18.30
2022-09-22T17:00:41.597Z,18.20
2022-09-22T17:03:09.696Z,18.20
2022-09-22T17:05:39.423Z,18.10
2022-09-22T17:08:08.439Z,18.10
2022-09-22T17:10:36.263Z,18.00
2022-09-22T17:13:05.162Z,17.90
2022-09-22T17:15:35.616Z,17.80
2022-09-22T17:18:04.124Z,17.70
2022-09-22T17:20:32.057Z,17.50
2022-09-22T17:23:01.569Z,17.50
2022-09-22T17:25:29.390Z,17.30
2022-09-22T17:27:58.657Z,17.20
2022-09-22T17:30:26.626Z,17.10
2022-09-22T17:32:54.465Z,16.90
2022-09-22T17:35:22.279Z,16.80
2022-09-22T17:37:51.718Z,16.70
2022-09-22T17:40:21.007Z,16.60
2022-09-22T17:42:48.877Z,16.50
2022-09-22T17:45:16.897Z,16.30
2022-09-22T17:48:02.232Z,16.20
2022-09-22T17:50:47.624Z,16.10
2022-09-22T17:53:47.673Z,16.00
2022-09-22T17:56:16.844Z,15.90
2022-09-22T17:58:44.641Z,15.80
2022-09-22T18:01:12.473Z,15.70
2022-09-22T18:03:40.261Z,15.60
2022-09-22T18:06:14.462Z,15.50
2022-09-22T18:08:44.450Z,15.40
2022-09-22T18:11:12.368Z,15.40
2022-09-22T18:13:41.541Z,15.30
2022-09-22T18:16:21.371Z,15.20
2022-09-22T18:18:49.240Z,15.10
2022-09-22T18:21:17.702Z,15.00
2022-09-22T18:23:45.600Z,14.90
2022-09-22T18:26:14.111Z,14.80
2022-09-22T18:28:43.244Z,14.70
2022-09-22T18:31:12.131Z,14.60
2022-09-22T18:33:40.010Z,14.50
2022-09-22T18:36:08.038Z,14.50
2022-09-22T18:38:35.852Z,14.40
2022-09-22T18:41:03.664Z,14.30
2022-09-22T18:43:31.472Z,14.20
2022-09-22T18:46:01.432Z,14.20
2022-09-22T18:48:29.320Z,14.10
2022-09-22T18:50:57.129Z,14.00
2022-09-22T18:53:24.945Z,13.90
2022-09-22T18:55:52.860Z,13.90
2022-09-22T18:58:20.644Z,13.80
2022-09-22T19:00:52.176Z,13.70
2022-09-22T19:03:21.334Z,13.70
2022-09-22T19:05:49.288Z,13.60
2022-09-22T19:08:17.106Z,13.60
2022-09-22T19:10:44.937Z,13.50
2022-09-22T19:13:15.544Z,13.40
2022-09-22T19:15:43.426Z,13.40
2022-09-22T19:18:11.240Z,13.30
2022-09-22T19:20:41.202Z,13.20
2022-09-22T19:23:09.021Z,13.20
2022-09-22T19:25:38.767Z,13.10
2022-09-22T19:28:07.232Z,13.10
2022-09-22T19:30:35.447Z,13.00
2022-09-22T19:33:03.440Z,12.90
2022-09-22T19:35:31.258Z,12.90
2022-09-22T19:38:03.333Z,12.80
2022-09-22T19:40:33.843Z,12.80
2022-09-22T19:43:02.853Z,12.70
2022-09-22T19:45:30.905Z,12.60
2022-09-22T19:47:59.061Z,12.60
2022-09-22T19:50:27.274Z,12.50
2022-09-22T19:52:55.079Z,12.40
2022-09-22T19:55:24.340Z,12.40
2022-09-22T19:57:53.971Z,12.30
2022-09-22T20:00:25.909Z,12.30
2022-09-22T20:02:58.516Z,12.20
2022-09-22T20:05:29.921Z,12.20
2022-09-22T20:07:57.832Z,12.10
2022-09-22T20:10:27.036Z,12.10
2022-09-22T20:12:54.978Z,12.00
2022-09-22T20:15:22.824Z,11.90
2022-09-22T20:17:50.684Z,11.90
2022-09-22T20:20:21.542Z,11.90
2022-09-22T20:22:54.524Z,11.80
2022-09-22T20:25:25.065Z,11.80
2022-09-22T20:27:56.048Z,11.70
2022-09-22T20:30:24.271Z,11.70
2022-09-22T20:32:52.227Z,11.60
2022-09-22T20:35:21.752Z,11.60
2022-09-22T20:37:51.374Z,11.50
2022-09-22T20:40:21.413Z,11.50
2022-09-22T20:42:49.700Z,11.50
2022-09-22T20:45:20.811Z,11.40
2022-09-22T20:47:48.746Z,11.40
2022-09-22T20:50:16.707Z,11.30
2022-09-22T20:52:44.544Z,11.30
2022-09-22T20:55:12.615Z,11.30
2022-09-22T20:57:40.732Z,11.20
2022-09-22T21:00:10.053Z,11.20
2022-09-22T21:02:39.258Z,11.20
2022-09-22T21:05:07.542Z,11.20
2022-09-22T21:07:35.373Z,11.20
2022-09-22T21:10:20.890Z,11.20
2022-09-22T21:12:50.599Z,11.20
2022-09-22T21:15:21.410Z,11.10
2022-09-22T21:17:51.369Z,11.10
2022-09-22T21:20:20.010Z,11.00
2022-09-22T21:22:47.826Z,11.00
2022-09-22T21:25:15.966Z,10.90
2022-09-22T21:27:45.121Z,10.90
2022-09-22T21:30:14.104Z,10.80
2022-09-22T21:32:41.918Z,10.80
2022-09-22T21:35:16.365Z,10.70
2022-09-22T21:37:44.606Z,10.70
2022-09-22T21:40:12.502Z,10.70
2022-09-22T21:42:40.337Z,10.60
2022-09-22T21:45:09.156Z,10.60
2022-09-22T21:47:36.969Z,10.60
2022-09-22T21:50:05.305Z,10.50
2022-09-22T21:52:34.449Z,10.50
2022-09-22T21:55:02.257Z,10.50
2022-09-22T21:57:30.072Z,10.50
2022-09-22T21:59:57.909Z,10.40
2022-09-22T22:02:25.751Z,10.40
2022-09-22T22:04:55.563Z,10.40
2022-09-22T22:07:23.356Z,10.30
2022-09-22T22:09:52.504Z,10.30
2022-09-22T22:12:23.390Z,10.30
2022-09-22T22:14:51.207Z,10.30
2022-09-22T22:17:19.601Z,10.20
2022-09-22T22:19:47.722Z,10.30
2022-09-22T22:22:15.809Z,10.20
2022-09-22T22:24:43.725Z,10.20
2022-09-22T22:27:16.705Z,10.20
2022-09-22T22:29:45.801Z,10.10
2022-09-22T22:32:13.595Z,10.10
2022-09-22T22:34:41.429Z,10.10
2022-09-22T22:37:10.699Z,10.00
2022-09-22T22:39:39.097Z,10.00
2022-09-22T22:42:07.784Z,9.90
2022-09-22T22:44:36.941Z,9.90
2022-09-22T22:47:05.141Z,9.90
2022-09-22T22:49:33.505Z,9.80
2022-09-22T22:52:01.361Z,9.80
2022-09-22T22:54:29.195Z,9.70
2022-09-22T22:56:57.025Z,9.70
2022-09-22T22:59:24.816Z,9.70
2022-09-22T23:01:54.048Z,9.60
2022-09-22T23:04:22.167Z,9.60
2022-09-22T23:06:50.005Z,9.60
2022-09-22T23:09:18.725Z,9.60
2022-09-22T23:11:47.522Z,9.60
2022-09-22T23:14:15.989Z,9.60
2022-09-22T23:16:45.519Z,9.60
2022-09-22T23:19:16.743Z,9.60
2022-09-22T23:21:45.767Z,9.60
2022-09-22T23:24:16.149Z,9.60
2022-09-22T23:26:44.517Z,9.60
2022-09-22T23:29:12.693Z,9.60
2022-09-22T23:31:40.535Z,9.50
2022-09-22T23:34:08.384Z,9.50
2022-09-22T23:36:38.005Z,9.50
2022-09-22T23:39:06.050Z,9.40
2022-09-22T23:41:36.674Z,9.40
2022-09-22T23:44:06.588Z,9.40
2022-09-22T23:46:35.017Z,9.30
2022-09-22T23:49:03.205Z,9.20
2022-09-22T23:51:31.089Z,9.20
2022-09-22T23:54:00.294Z,9.20
2022-09-22T23:56:28.117Z,9.20
2022-09-22T23:58:55.977Z,9.10
